MST,Max TemperatureF,Mean TemperatureF,Min TemperatureF,Max Dew PointF,MeanDew PointF,Min DewpointF,Max Humidity, Mean Humidity, Min Humidity, Max Sea Level PressureIn, Mean Sea Level PressureIn, Min Sea Level PressureIn, Max VisibilityMiles, Mean VisibilityMiles, Min VisibilityMiles, Max Wind SpeedMPH, Mean Wind SpeedMPH, Max Gust SpeedMPH,PrecipitationIn, CloudCover, Events, WindDirDegrees
2013-1-1,25,9,-7,15,0,-10,92,82,55,30.37,30.27,30.02,10,10,10,14,5,17,0.00,1,,326
2013-1-2,28,15,1,18,8,-2,84,71,53,30.43,30.32,30.17,10,10,9,26,9,31,T,3,Snow,336
2013-1-3,31,14,-3,10,1,-8,84,67,40,30.51,30.43,30.33,10,10,10,14,5,16,0.00,0,,310
2013-1-4,42,19,-4,19,4,-8,84,64,24,30.40,30.27,30.11,10,10,10,12,5,,0.00,0,,334
2013-1-5,36,19,2,19,10,0,92,65,44,30.45,30.29,30.06,10,10,10,26,13,35,0.00,0,,336
2013-1-6,45,20,-5,17,8,-9,88,64,28,30.47,30.25,29.96,10,10,10,18,8,23,0.00,0,,46
2013-1-7,49,30,11,19,13,7,88,59,21,30.10,29.97,29.88,10,10,10,13,5,18,0.00,0,,354
2013-1-8,50,29,8,23,14,5,92,64,25,30.30,30.05,29.84,10,10,10,15,5,17,0.00,0,,351
2013-1-9,48,28,8,22,17,7,92,62,29,30.47,30.30,30.15,10,10,10,23,9,29,0.00,0,,172
2013-1-10,47,33,19,37,23,9,93,65,23,30.12,29.78,29.41,10,10,10,22,12,28,0.00,3,,175
2013-1-11,46,19,-8,25,14,-10,96,74,17,29.91,29.52,29.22,10,10,9,36,16,45,0.05,4,Snow-Thunderstorm,317
2013-1-12,11,1,-10,5,-3,-13,92,83,61,30.26,30.06,29.79,10,10,9,14,4,16,0.09,5,Snow,330
2013-1-13,15,0,-15,5,-5,-17,91,81,64,30.44,30.30,30.22,10,10,10,9,3,12,0.00,2,,30
2013-1-14,13,1,-11,6,1,-13,92,85,70,30.38,30.23,30.03,10,10,9,13,3,15,0.02,8,Snow,42
2013-1-15,28,6,-17,23,1,-20,91,74,44,30.35,30.27,30.03,10,10,10,14,5,18,T,4,Snow,312
2013-1-16,46,30,14,26,20,12,81,68,43,30.43,30.28,30.15,10,10,10,20,10,25,0.00,1,,315
2013-1-17,47,28,8,22,16,6,88,68,35,30.58,30.45,30.27,10,10,10,15,3,21,0.00,0,,179
2013-1-18,56,36,15,19,12,3,84,50,12,30.25,30.16,30.05,10,10,10,14,6,16,0.00,0,,320
2013-1-19,51,35,18,15,11,7,81,48,17,30.32,30.21,30.04,10,10,10,15,5,17,0.00,0,,311
2013-1-20,44,28,11,18,14,10,96,62,28,30.35,30.26,30.10,10,10,10,32,10,38,0.00,0,,3
2013-1-21,51,28,5,23,10,3,92,60,18,30.36,30.23,30.10,10,10,10,14,3,17,0.00,0,,296
2013-1-22,59,36,12,11,5,-4,84,44,8,30.28,30.14,30.05,10,10,10,12,5,14,0.00,0,,349
2013-1-23,66,38,10,16,5,-7,80,37,5,30.30,30.18,30.10,10,10,10,15,5,17,0.00,0,,17
2013-1-24,56,37,17,21,16,5,85,54,14,30.19,30.10,29.96,10,10,10,15,6,18,0.00,0,,129
2013-1-25,51,33,15,26,21,15,96,68,35,30.28,30.17,30.07,10,10,10,22,6,29,0.00,0,,228
2013-1-26,57,38,18,35,25,17,100,68,29,30.12,29.93,29.68,10,10,10,15,5,16,T,3,Rain,22
2013-1-27,57,40,22,38,30,22,100,77,38,29.81,29.71,29.63,10,10,10,15,5,20,0.00,0,,324
2013-1-28,60,39,17,32,25,15,100,79,22,29.77,29.66,29.44,10,10,10,36,9,43,0.00,3,,357
2013-1-29,27,19,11,25,17,7,100,86,65,30.00,29.74,29.61,10,10,9,25,14,30,0.13,6,Snow,357
2013-1-30,32,15,-2,18,8,-5,88,75,49,30.11,30.02,29.87,10,10,10,25,11,31,0.00,4,,337
2013-1-31,40,24,8,24,16,5,88,73,53,30.28,30.16,29.99,10,10,10,14,5,16,0.00,0,,7